createdAt,value
2017-05-28T00:02:11.546Z,52.00
2017-05-28T00:04:41.482Z,52.00
2017-05-28T00:07:10.430Z,51.90
2017-05-28T00:09:39.380Z,52.00
2017-05-28T00:12:08.338Z,52.00
2017-05-28T00:14:37.308Z,51.80
2017-05-28T00:17:06.237Z,51.70
2017-05-28T00:19:35.228Z,52.00
2017-05-28T00:22:04.151Z,51.80
2017-05-28T00:24:33.097Z,52.10
2017-05-28T00:27:02.083Z,51.90
2017-05-28T00:29:31.022Z,52.20
2017-05-28T00:31:59.940Z,51.90
2017-05-28T00:34:28.900Z,51.80
2017-05-28T00:36:57.819Z,51.80
2017-05-28T00:39:26.766Z,51.90
2017-05-28T00:41:55.746Z,51.60
2017-05-28T00:44:24.684Z,51.70
2017-05-28T00:46:53.607Z,51.90
2017-05-28T00:49:22.581Z,52.00
2017-05-28T00:51:51.509Z,51.80
2017-05-28T00:54:20.462Z,51.70
2017-05-28T00:56:49.435Z,51.70
2017-05-28T00:59:18.387Z,51.70
2017-05-28T01:01:47.329Z,51.60
2017-05-28T01:04:16.291Z,51.60
2017-05-28T01:06:45.214Z,51.80
2017-05-28T01:09:14.161Z,52.60
2017-05-28T01:11:43.132Z,51.90
2017-05-28T01:14:12.073Z,51.90
2017-05-28T01:16:40.997Z,51.90
2017-05-28T01:19:09.971Z,52.10
2017-05-28T01:21:38.893Z,52.20
2017-05-28T01:24:07.833Z,52.50
2017-05-28T01:26:36.807Z,52.20
2017-05-28T01:29:05.747Z,52.10
2017-05-28T01:31:34.698Z,52.00
2017-05-28T01:34:03.659Z,52.20
2017-05-28T01:36:32.578Z,52.00
2017-05-28T01:39:01.506Z,51.90
2017-05-28T01:41:30.455Z,51.90
2017-05-28T01:43:59.396Z,52.00
2017-05-28T01:46:28.335Z,51.90
2017-05-28T01:48:57.305Z,51.90
2017-05-28T01:51:26.226Z,51.90
2017-05-28T01:53:55.172Z,52.10
2017-05-28T01:56:24.131Z,52.10
2017-05-28T01:58:53.057Z,52.20
2017-05-28T02:01:21.981Z,52.10
2017-05-28T02:03:50.944Z,52.20
2017-05-28T02:06:19.890Z,52.20
2017-05-28T02:08:48.832Z,52.40
2017-05-28T02:11:17.791Z,52.60
2017-05-28T02:13:46.732Z,52.50
2017-05-28T02:16:15.672Z,52.50
2017-05-28T02:18:44.642Z,52.40
2017-05-28T02:21:13.580Z,52.40
2017-05-28T02:23:42.502Z,52.60
2017-05-28T02:26:11.495Z,52.60
2017-05-28T02:28:40.429Z,52.70
2017-05-28T02:31:09.353Z,52.50
2017-05-28T02:33:38.313Z,52.60
2017-05-28T02:36:07.239Z,52.70
2017-05-28T02:38:36.167Z,52.70
2017-05-28T02:41:05.122Z,52.80
2017-05-28T02:43:34.069Z,52.80
2017-05-28T02:46:03.009Z,52.80
2017-05-28T02:48:31.953Z,52.80
2017-05-28T02:51:00.869Z,52.90
2017-05-28T02:53:29.791Z,52.90
2017-05-28T02:55:58.761Z,52.90
2017-05-28T02:58:27.685Z,52.90
2017-05-28T03:00:56.610Z,52.90
2017-05-28T03:03:25.550Z,52.90
2017-05-28T03:05:54.488Z,52.80
2017-05-28T03:08:23.434Z,52.60
2017-05-28T03:10:52.403Z,52.70
2017-05-28T03:13:21.349Z,52.80
2017-05-28T03:15:50.293Z,53.00
2017-05-28T03:18:19.259Z,53.20
2017-05-28T03:20:48.180Z,53.00
2017-05-28T03:23:17.125Z,53.00
2017-05-28T03:25:46.095Z,52.90
2017-05-28T03:28:15.032Z,52.90
2017-05-28T03:30:43.973Z,53.00
2017-05-28T03:33:12.923Z,53.00
2017-05-28T03:35:41.854Z,53.00
2017-05-28T03:38:10.770Z,52.90
2017-05-28T03:40:39.755Z,52.60
2017-05-28T03:43:08.707Z,52.70
2017-05-28T03:45:37.626Z,52.80
2017-05-28T03:48:06.575Z,52.90
2017-05-28T03:50:35.494Z,52.90
2017-05-28T03:53:04.438Z,52.90
2017-05-28T03:55:33.401Z,52.90
2017-05-28T03:58:02.321Z,52.70
2017-05-28T04:00:31.256Z,52.60
2017-05-28T04:03:00.220Z,52.60
2017-05-28T04:05:29.150Z,52.60
2017-05-28T04:07:58.096Z,52.60
2017-05-28T04:10:27.042Z,52.50
2017-05-28T04:12:55.985Z,52.70
2017-05-28T04:15:24.917Z,52.40
2017-05-28T04:17:53.885Z,52.30
2017-05-28T04:20:22.827Z,52.00
2017-05-28T04:22:51.745Z,52.40
2017-05-28T04:25:20.715Z,52.60
2017-05-28T04:27:49.637Z,52.00
2017-05-28T04:30:18.554Z,52.20
2017-05-28T04:32:47.520Z,52.20
2017-05-28T04:35:16.443Z,51.90
2017-05-28T04:37:45.386Z,51.60
2017-05-28T04:40:14.773Z,51.60
2017-05-28T04:42:43.698Z,51.70
2017-05-28T04:45:12.637Z,51.40
2017-05-28T04:47:41.585Z,51.30
2017-05-28T04:50:10.534Z,51.70
2017-05-28T04:52:39.481Z,51.90
2017-05-28T04:55:08.446Z,52.00
2017-05-28T04:57:37.388Z,51.80
2017-05-28T05:00:06.315Z,51.80
2017-05-28T05:02:35.266Z,51.90
2017-05-28T05:05:04.204Z,52.10
2017-05-28T05:07:33.163Z,52.00
2017-05-28T05:10:02.485Z,51.70
2017-05-28T05:12:31.405Z,52.20
2017-05-28T05:15:00.321Z,52.40
2017-05-28T05:17:29.267Z,52.00
2017-05-28T05:19:58.205Z,52.40
2017-05-28T05:22:27.143Z,52.30
2017-05-28T05:24:56.118Z,51.90
2017-05-28T05:27:25.042Z,51.80
2017-05-28T05:29:53.976Z,51.80
2017-05-28T05:32:22.926Z,51.80
2017-05-28T05:35:00.445Z,51.50
2017-05-28T05:37:30.616Z,51.20
2017-05-28T05:39:59.568Z,51.10
2017-05-28T05:42:28.509Z,51.20
2017-05-28T05:44:57.465Z,50.70
2017-05-28T05:47:26.385Z,51.00
2017-05-28T05:49:55.329Z,50.60
2017-05-28T05:52:24.315Z,50.60
2017-05-28T05:54:53.261Z,51.50
2017-05-28T05:57:22.208Z,49.90
2017-05-28T05:59:51.178Z,50.00
2017-05-28T06:02:20.121Z,50.10
2017-05-28T06:04:49.044Z,49.30
2017-05-28T06:07:19.009Z,49.60
2017-05-28T06:09:47.931Z,49.30
2017-05-28T06:12:16.854Z,48.90
2017-05-28T06:14:45.837Z,49.00
2017-05-28T06:17:14.781Z,49.10
2017-05-28T06:19:43.723Z,49.00
2017-05-28T06:22:12.691Z,49.30
2017-05-28T06:24:41.620Z,49.10
2017-05-28T06:27:10.569Z,49.10
2017-05-28T06:29:39.657Z,49.00
2017-05-28T06:32:09.287Z,48.60
2017-05-28T06:34:38.260Z,48.20
2017-05-28T06:37:12.035Z,47.40
2017-05-28T06:39:43.152Z,47.50
2017-05-28T06:42:12.124Z,46.70
2017-05-28T06:44:41.046Z,47.90
2017-05-28T06:47:09.993Z,47.30
2017-05-28T06:49:38.937Z,48.00
2017-05-28T06:52:07.871Z,47.10
2017-05-28T06:54:36.816Z,47.50
2017-05-28T06:57:05.770Z,47.80
2017-05-28T06:59:34.713Z,46.80
2017-05-28T07:02:03.637Z,46.30
2017-05-28T07:04:32.584Z,45.10
2017-05-28T07:07:01.506Z,45.50
2017-05-28T07:09:30.454Z,46.10
2017-05-28T07:11:59.440Z,47.00
2017-05-28T07:14:28.373Z,47.20
2017-05-28T07:16:57.314Z,46.90
2017-05-28T07:19:26.288Z,46.10
2017-05-28T07:21:55.207Z,46.10
2017-05-28T07:24:24.131Z,46.00
2017-05-28T07:26:53.100Z,45.10
2017-05-28T07:29:22.019Z,45.00
2017-05-28T07:31:50.961Z,44.20
2017-05-28T07:34:19.916Z,44.40
2017-05-28T07:36:48.852Z,44.50
2017-05-28T07:39:17.797Z,44.60
2017-05-28T07:41:46.752Z,43.10
2017-05-28T07:44:15.713Z,43.40
2017-05-28T07:46:44.657Z,42.40
2017-05-28T07:49:13.642Z,43.00
2017-05-28T07:51:42.589Z,43.00
2017-05-28T07:54:11.528Z,43.00
2017-05-28T07:56:40.485Z,42.40
2017-05-28T07:59:09.406Z,43.00
2017-05-28T08:01:38.332Z,44.00
2017-05-28T08:04:07.307Z,44.40
2017-05-28T08:06:36.253Z,44.70
2017-05-28T08:09:05.178Z,44.80
2017-05-28T08:11:34.144Z,44.80
2017-05-28T08:14:03.089Z,45.60
2017-05-28T08:16:32.038Z,46.00
2017-05-28T08:19:01.015Z,47.10
2017-05-28T08:21:29.953Z,46.40
2017-05-28T08:23:58.901Z,47.30
2017-05-28T08:26:27.874Z,47.60
2017-05-28T08:28:56.844Z,49.00
2017-05-28T08:31:25.786Z,48.70
2017-05-28T08:33:54.762Z,49.10
2017-05-28T08:36:23.688Z,47.50
2017-05-28T08:38:52.605Z,48.10
2017-05-28T08:41:21.565Z,48.30
2017-05-28T08:43:50.481Z,47.30
2017-05-28T08:46:19.420Z,47.00
2017-05-28T08:48:48.369Z,47.40
2017-05-28T08:51:17.301Z,47.50
2017-05-28T08:53:46.225Z,46.30
2017-05-28T08:56:15.211Z,46.40
2017-05-28T08:58:44.139Z,47.60
2017-05-28T09:01:13.092Z,44.90
2017-05-28T09:06:18.883Z,47.00
2017-05-28T09:08:47.870Z,47.50
2017-05-28T09:11:16.843Z,46.30
2017-05-28T09:13:45.817Z,47.40
2017-05-28T09:16:14.820Z,48.60
2017-05-28T09:18:43.806Z,49.20
2017-05-28T09:21:12.785Z,49.70
2017-05-28T09:23:41.732Z,49.00
2017-05-28T09:26:10.662Z,48.90
2017-05-28T09:28:39.618Z,48.70
2017-05-28T09:31:08.554Z,48.50
2017-05-28T09:33:37.496Z,49.00
2017-05-28T09:36:06.469Z,49.80
2017-05-28T09:38:35.412Z,49.90
2017-05-28T09:41:04.362Z,49.40
2017-05-28T09:43:33.314Z,48.70
2017-05-28T09:46:02.233Z,48.50
2017-05-28T09:48:32.088Z,49.10
2017-05-28T09:51:01.139Z,47.30
2017-05-28T09:53:30.139Z,45.30
2017-05-28T09:55:59.086Z,44.30
2017-05-28T09:58:28.034Z,43.70
2017-05-28T10:00:56.965Z,41.00
2017-05-28T10:03:25.910Z,40.20
2017-05-28T10:05:54.859Z,38.20
2017-05-28T10:08:23.779Z,37.20
2017-05-28T10:10:52.711Z,33.90
2017-05-28T10:13:21.695Z,29.10
2017-05-28T10:15:50.624Z,28.80
2017-05-28T10:18:19.551Z,28.10
2017-05-28T10:20:48.521Z,28.70
2017-05-28T10:23:17.462Z,30.00
2017-05-28T10:25:46.390Z,31.40
2017-05-28T10:28:15.342Z,31.70
2017-05-28T10:30:44.286Z,31.70
2017-05-28T10:33:13.257Z,34.60
2017-05-28T10:35:42.224Z,35.60
2017-05-28T10:38:11.169Z,35.00
2017-05-28T10:40:40.095Z,35.90
2017-05-28T10:43:09.067Z,35.30
2017-05-28T10:45:38.007Z,36.80
2017-05-28T10:48:06.929Z,36.90
2017-05-28T10:50:35.903Z,32.60
2017-05-28T10:53:04.853Z,29.40
2017-05-28T10:55:33.774Z,28.80
2017-05-28T10:58:02.732Z,28.60
2017-05-28T11:00:31.675Z,28.00
2017-05-28T11:03:00.598Z,27.10
2017-05-28T11:05:29.546Z,26.50
2017-05-28T11:07:58.468Z,25.40
2017-05-28T11:10:27.412Z,24.10
2017-05-28T11:12:56.387Z,25.50
2017-05-28T11:15:25.329Z,26.80
2017-05-28T11:17:54.281Z,25.90
2017-05-28T11:20:23.254Z,26.00
2017-05-28T11:23:02.102Z,26.70
2017-05-28T11:25:31.047Z,26.10
2017-05-28T11:27:59.981Z,25.60
2017-05-28T11:30:28.919Z,26.40
2017-05-28T11:32:57.870Z,27.20
2017-05-28T11:35:26.813Z,29.10
2017-05-28T11:37:55.740Z,30.00
2017-05-28T11:40:24.693Z,29.60
2017-05-28T11:42:53.619Z,32.90
2017-05-28T11:45:22.561Z,34.20
2017-05-28T11:47:51.511Z,35.90
2017-05-28T11:50:20.439Z,36.50
2017-05-28T11:52:49.364Z,38.00
2017-05-28T11:55:18.343Z,35.60
2017-05-28T11:57:47.268Z,35.20
2017-05-28T12:00:16.281Z,35.70
2017-05-28T12:02:45.261Z,35.90
2017-05-28T12:05:14.220Z,36.70
2017-05-28T12:07:43.156Z,35.80
2017-05-28T12:10:12.110Z,36.20
2017-05-28T12:12:41.038Z,37.20
2017-05-28T12:15:09.971Z,35.10
2017-05-28T12:17:38.928Z,35.70
2017-05-28T12:20:07.851Z,37.30
2017-05-28T12:22:36.793Z,37.20
2017-05-28T12:25:05.795Z,37.80
2017-05-28T12:27:34.734Z,36.10
2017-05-28T12:30:03.677Z,37.10
2017-05-28T12:32:32.657Z,37.80
2017-05-28T12:35:01.606Z,37.90
2017-05-28T12:37:30.559Z,38.90
2017-05-28T12:39:59.538Z,39.70
2017-05-28T12:42:28.467Z,37.70
2017-05-28T12:44:57.405Z,39.40
2017-05-28T12:47:26.357Z,38.60
2017-05-28T12:49:55.279Z,39.10
2017-05-28T12:52:24.211Z,40.30
2017-05-28T12:54:53.619Z,40.20
2017-05-28T12:57:22.569Z,40.20
2017-05-28T12:59:51.501Z,38.20
2017-05-28T13:02:20.480Z,38.70
2017-05-28T13:04:49.427Z,40.20
2017-05-28T13:07:18.358Z,41.00
2017-05-28T13:09:47.337Z,42.20
2017-05-28T13:12:16.263Z,42.40
2017-05-28T13:14:45.183Z,40.10
2017-05-28T13:17:14.155Z,41.70
2017-05-28T13:19:43.093Z,41.10
2017-05-28T13:22:12.033Z,40.80
2017-05-28T13:24:41.002Z,38.80
2017-05-28T13:27:09.925Z,37.90
2017-05-28T13:29:38.846Z,38.90
2017-05-28T13:32:07.824Z,39.10
2017-05-28T13:34:36.772Z,38.90
2017-05-28T13:37:05.711Z,38.60
2017-05-28T13:39:34.687Z,38.00
2017-05-28T13:42:03.615Z,37.70
2017-05-28T13:44:32.559Z,37.40
2017-05-28T13:47:01.534Z,39.60
2017-05-28T13:49:30.474Z,37.30
2017-05-28T13:51:59.415Z,36.70
2017-05-28T13:54:28.394Z,37.00
2017-05-28T13:56:57.340Z,37.10
2017-05-28T13:59:26.285Z,34.00
2017-05-28T14:01:55.260Z,35.40
2017-05-28T14:04:24.186Z,34.60
2017-05-28T14:06:53.128Z,34.10
2017-05-28T14:09:22.097Z,34.10
2017-05-28T14:11:51.023Z,34.20
2017-05-28T14:14:19.970Z,33.60
2017-05-28T14:16:48.944Z,33.10
2017-05-28T14:19:17.871Z,33.60
2017-05-28T14:21:46.799Z,32.30
2017-05-28T14:24:15.773Z,32.40
2017-05-28T14:26:44.705Z,32.60
2017-05-28T14:29:13.661Z,32.30
2017-05-28T14:31:42.645Z,31.50
2017-05-28T14:34:11.595Z,31.90
2017-05-28T14:36:40.509Z,31.80
2017-05-28T14:39:09.485Z,32.30
2017-05-28T14:41:38.430Z,31.70
2017-05-28T14:44:07.384Z,32.30
2017-05-28T14:46:36.393Z,32.20
2017-05-28T14:49:05.322Z,32.10
2017-05-28T14:51:34.254Z,32.50
2017-05-28T14:54:03.240Z,32.50
2017-05-28T14:56:37.986Z,34.70
2017-05-28T14:59:06.949Z,36.30
2017-05-28T15:01:35.878Z,37.00
2017-05-28T15:04:04.808Z,37.90
2017-05-28T15:06:33.773Z,39.60
2017-05-28T15:09:02.711Z,41.40
2017-05-28T15:11:31.658Z,42.20
2017-05-28T15:14:00.615Z,42.90
2017-05-28T15:16:29.564Z,43.50
2017-05-28T15:18:58.513Z,44.40
2017-05-28T15:21:27.475Z,44.50
2017-05-28T15:23:56.434Z,45.10
2017-05-28T15:26:25.362Z,45.30
2017-05-28T15:28:54.336Z,45.30
2017-05-28T15:31:23.281Z,45.30
2017-05-28T15:33:52.227Z,45.60
2017-05-28T15:36:21.206Z,45.70
2017-05-28T15:38:50.162Z,45.20
2017-05-28T15:41:19.105Z,45.20
2017-05-28T15:43:48.065Z,46.10
2017-05-28T15:46:17.046Z,46.60
2017-05-28T15:48:46.009Z,46.60
2017-05-28T15:51:14.966Z,46.50
2017-05-28T15:53:43.921Z,45.20
2017-05-28T15:56:12.842Z,44.60
2017-05-28T15:58:41.816Z,44.60
2017-05-28T16:01:10.814Z,44.70
2017-05-28T16:03:39.737Z,44.40
2017-05-28T16:06:08.712Z,44.80
2017-05-28T16:08:37.665Z,43.60
2017-05-28T16:11:06.597Z,43.70
2017-05-28T16:13:35.574Z,43.50
2017-05-28T16:16:04.526Z,42.70
2017-05-28T16:18:33.456Z,42.10
2017-05-28T16:21:02.411Z,42.00
2017-05-28T16:23:31.346Z,42.30
2017-05-28T16:26:00.272Z,41.50
2017-05-28T16:28:29.225Z,40.90
2017-05-28T16:30:58.168Z,40.60
2017-05-28T16:33:27.119Z,40.90
2017-05-28T16:36:01.875Z,41.90
2017-05-28T16:38:30.816Z,42.50
2017-05-28T16:40:59.743Z,43.20
2017-05-28T16:43:28.698Z,43.80
2017-05-28T16:45:57.627Z,44.40
2017-05-28T16:48:26.576Z,44.60
2017-05-28T16:50:55.534Z,44.50
2017-05-28T16:53:24.473Z,44.00
2017-05-28T16:55:53.402Z,44.30
2017-05-28T16:58:22.356Z,44.60
2017-05-28T17:00:51.283Z,44.90
2017-05-28T17:03:20.210Z,45.20
2017-05-28T17:05:49.186Z,45.30
2017-05-28T17:08:18.126Z,45.20
2017-05-28T17:10:47.055Z,45.60
2017-05-28T17:13:16.029Z,45.70
2017-05-28T17:15:44.969Z,45.50
2017-05-28T17:18:13.930Z,44.90
2017-05-28T17:20:42.897Z,45.30
2017-05-28T17:23:11.836Z,44.60
2017-05-28T17:25:40.758Z,44.80
2017-05-28T17:28:09.725Z,43.60
2017-05-28T17:30:38.674Z,42.90
2017-05-28T17:33:07.618Z,42.80
2017-05-28T17:35:36.570Z,43.90
2017-05-28T17:38:05.513Z,44.10
2017-05-28T17:40:34.457Z,44.30
2017-05-28T17:43:03.424Z,44.60
2017-05-28T17:45:32.342Z,44.60
2017-05-28T17:48:01.256Z,44.80
2017-05-28T17:50:30.223Z,45.20
2017-05-28T17:52:59.153Z,45.70
2017-05-28T17:55:28.078Z,46.00
2017-05-28T17:57:57.080Z,46.50
2017-05-28T18:00:26.029Z,46.50
2017-05-28T18:02:54.969Z,47.00
2017-05-28T18:05:23.943Z,47.70
2017-05-28T18:07:52.868Z,47.70
2017-05-28T18:10:21.788Z,47.40
2017-05-28T18:12:50.757Z,47.90
2017-05-28T18:15:19.678Z,48.40
2017-05-28T18:17:48.602Z,48.60
2017-05-28T18:20:17.558Z,48.90
2017-05-28T18:22:46.483Z,48.50
2017-05-28T18:25:15.429Z,49.10
2017-05-28T18:27:44.406Z,48.90
2017-05-28T18:30:13.322Z,48.90
2017-05-28T18:32:42.254Z,49.10
2017-05-28T18:35:11.232Z,48.80
2017-05-28T18:37:40.158Z,49.00
2017-05-28T18:40:09.100Z,49.50
2017-05-28T18:42:38.059Z,49.70
2017-05-28T18:45:06.979Z,50.00
2017-05-28T18:47:35.902Z,49.70
2017-05-28T18:50:04.872Z,49.80
2017-05-28T18:52:33.794Z,49.10
2017-05-28T18:55:02.738Z,49.80
2017-05-28T18:57:31.725Z,50.10
2017-05-28T19:00:00.653Z,50.40
2017-05-28T19:02:29.597Z,50.40
2017-05-28T19:04:58.573Z,50.60
2017-05-28T19:07:27.520Z,50.30
2017-05-28T19:09:56.447Z,50.60
2017-05-28T19:12:25.426Z,51.20
2017-05-28T19:14:54.404Z,52.00
2017-05-28T19:17:23.345Z,51.30
2017-05-28T19:19:52.292Z,52.00
2017-05-28T19:22:21.212Z,52.00
2017-05-28T19:24:50.982Z,52.40
2017-05-28T19:27:19.936Z,52.40
2017-05-28T19:29:48.898Z,52.40
2017-05-28T19:32:17.829Z,52.60
2017-05-28T19:34:46.781Z,53.10
2017-05-28T19:37:15.702Z,54.30
2017-05-28T19:39:44.724Z,53.90
2017-05-28T19:42:13.678Z,54.50
2017-05-28T19:44:42.599Z,54.50
2017-05-28T19:47:11.545Z,54.60
2017-05-28T19:49:40.490Z,54.60
2017-05-28T19:52:09.445Z,55.20
2017-05-28T19:54:38.372Z,55.50
2017-05-28T19:57:07.345Z,55.80
2017-05-28T19:59:36.276Z,56.20
2017-05-28T20:02:05.205Z,56.60
2017-05-28T20:04:34.182Z,56.60
2017-05-28T20:07:03.129Z,56.60
2017-05-28T20:09:32.063Z,57.10
2017-05-28T20:12:01.038Z,57.20
2017-05-28T20:14:29.979Z,57.50
2017-05-28T20:16:59.825Z,58.30
2017-05-28T20:19:28.782Z,57.70
2017-05-28T20:21:57.729Z,58.50
2017-05-28T20:24:26.664Z,57.50
2017-05-28T20:26:55.686Z,57.70
2017-05-28T20:29:24.641Z,57.90
2017-05-28T20:31:53.564Z,58.00
2017-05-28T20:34:22.516Z,58.30
2017-05-28T20:36:51.444Z,58.60
2017-05-28T20:39:20.365Z,59.50
2017-05-28T20:41:49.310Z,59.00
2017-05-28T20:44:18.254Z,59.20
2017-05-28T20:46:47.195Z,59.40
2017-05-28T20:49:16.166Z,59.80
2017-05-28T20:51:45.107Z,60.00
2017-05-28T20:54:14.050Z,60.40
2017-05-28T20:56:43.062Z,60.60
2017-05-28T20:59:12.016Z,61.70
2017-05-28T21:01:41.006Z,61.10
2017-05-28T21:04:09.981Z,61.30
2017-05-28T21:06:39.461Z,61.70
2017-05-28T21:09:08.384Z,62.10
2017-05-28T21:11:37.335Z,62.40
2017-05-28T21:14:06.255Z,62.60
2017-05-28T21:16:35.197Z,62.80
2017-05-28T21:19:04.145Z,63.20
2017-05-28T21:21:33.094Z,63.30
2017-05-28T21:24:02.017Z,63.60
2017-05-28T21:26:31.013Z,63.60
2017-05-28T21:28:59.934Z,63.60
2017-05-28T21:31:28.873Z,63.50
2017-05-28T21:33:57.827Z,64.10
2017-05-28T21:36:26.757Z,63.80
2017-05-28T21:38:55.678Z,63.60
2017-05-28T21:41:24.711Z,63.70
2017-05-28T21:43:53.689Z,64.00
2017-05-28T21:46:22.619Z,63.90
2017-05-28T21:48:51.570Z,64.30
2017-05-28T21:51:20.520Z,64.60
2017-05-28T21:53:49.456Z,64.70
2017-05-28T21:56:18.406Z,64.80
2017-05-28T21:58:47.340Z,65.10
2017-05-28T22:01:16.297Z,64.80
2017-05-28T22:03:45.731Z,65.20
2017-05-28T22:06:14.678Z,65.10
2017-05-28T22:08:43.624Z,65.10
2017-05-28T22:11:12.601Z,65.40
2017-05-28T22:13:41.544Z,65.60
2017-05-28T22:16:10.499Z,65.80
2017-05-28T22:18:39.450Z,66.30
2017-05-28T22:21:08.378Z,66.10
2017-05-28T22:23:37.302Z,66.40
2017-05-28T22:26:06.263Z,66.50
2017-05-28T22:28:35.189Z,66.70
2017-05-28T22:31:04.136Z,66.50
2017-05-28T22:33:33.114Z,66.20
2017-05-28T22:36:02.046Z,66.20
2017-05-28T22:38:30.975Z,66.80
2017-05-28T22:40:59.936Z,66.90
2017-05-28T22:43:28.901Z,67.00
2017-05-28T22:45:57.849Z,67.30
2017-05-28T22:48:26.807Z,67.20
2017-05-28T22:50:55.755Z,67.40
2017-05-28T22:53:24.713Z,68.70
2017-05-28T22:55:53.678Z,68.50
2017-05-28T22:58:22.616Z,69.00
2017-05-28T23:00:51.564Z,69.20
2017-05-28T23:03:20.518Z,69.50
2017-05-28T23:05:49.465Z,69.40
2017-05-28T23:08:18.418Z,69.30
2017-05-28T23:10:47.392Z,68.90
2017-05-28T23:13:16.336Z,68.70
2017-05-28T23:15:45.285Z,68.50
2017-05-28T23:18:14.237Z,68.60
2017-05-28T23:20:43.182Z,69.00
2017-05-28T23:23:12.125Z,69.40
2017-05-28T23:25:41.081Z,69.50
2017-05-28T23:28:10.007Z,69.30
2017-05-28T23:30:38.941Z,69.60
2017-05-28T23:33:07.892Z,70.10
2017-05-28T23:35:36.833Z,69.90
2017-05-28T23:38:05.781Z,70.10
2017-05-28T23:40:34.753Z,70.60
2017-05-28T23:43:03.700Z,70.90
2017-05-28T23:45:32.645Z,70.80
2017-05-28T23:48:01.638Z,71.00
2017-05-28T23:50:30.590Z,71.10
2017-05-28T23:52:59.522Z,71.30
2017-05-28T23:55:28.500Z,71.40
2017-05-28T23:57:57.422Z,71.80
